Sullivan, Ohio
Current Conditions -  °F | °C
As of 6:52 AM on Sunday 23 Nov 2014 (Local Time) from KMFD Reporting Station
Overcast Overcast  
Wind Chill: 39°   Ceiling: 4100
Heat Index: 45°   Visibility: 10mi
Dew Point: 42°   Wind: 13mph
Humidity: 90%   Direction: 150°SSE
Pressure: 30.01"   Gusts: NA
Location:  41.03°N, 82.22°W
Report Text: KMFD 231152Z 15011KT 10SM OVC041 07/06 A3001 RMK AO2 RAB19E29 SLP167 P0001 60008 70017 T00720056 10094 20067 58007
Loading
Personal Weather Stations






























Interactive Weather Map New forecast layout! Learn more

10-Day Weather Forecast

Advertisements
Track Severe Weather on mobile